Time;durP1;ratioP1;P1;durP2;ratioP2;P2;SDS_P1;SDS_P2;PMS_P1;PMS_P2;Temp;Humidity;BMP_temperature;BMP_pressure;BME280_temperature;BME280_humidity;BME280_pressure;Samples;Min_cycle;Max_cycle;Signal;HPM_P1;HPM_P2
2021/04/16 00:01:35;;;;;;;33.10;20.38;;;;;;;;;;4978003;28;20030;-82
2021/04/16 00:04:01;;;;;;;35.80;20.10;;;;;;;;;;4978136;28;20110;-82
2021/04/16 00:06:27;;;;;;;35.85;21.30;;;;;;;;;;4978363;28;20050;-82
2021/04/16 00:08:54;;;;;;;34.50;20.52;;;;;;;;;;4949194;29;20043;-81
2021/04/16 00:11:22;;;;;;;32.58;20.00;;;;;;;;;;4941140;29;20146;-82
2021/04/16 00:13:48;;;;;;;37.40;20.73;;;;;;;;;;4957974;29;20318;-82
2021/04/16 00:16:15;;;;;;;36.50;20.80;;;;;;;;;;4940314;29;20059;-81
2021/04/16 00:18:41;;;;;;;36.45;21.27;;;;;;;;;;4958621;29;20037;-81
2021/04/16 00:21:07;;;;;;;34.67;20.35;;;;;;;;;;4972324;28;20022;-81
2021/04/16 00:23:33;;;;;;;35.17;20.15;;;;;;;;;;4996908;28;20133;-81
2021/04/16 00:26:00;;;;;;;35.70;19.48;;;;;;;;;;4997372;28;20354;-81
2021/04/16 00:28:26;;;;;;;31.83;17.92;;;;;;;;;;4986453;28;20035;-81
2021/04/16 00:30:58;;;;;;;31.92;19.17;;;;;;;;;;4977749;28;20019;-81
2021/04/16 00:33:25;;;;;;;30.30;18.05;;;;;;;;;;4977797;28;20077;-82
2021/04/16 00:35:51;;;;;;;33.53;18.77;;;;;;;;;;4977550;28;20031;-81
2021/04/16 00:38:18;;;;;;;26.25;17.75;;;;;;;;;;4977503;28;20031;-81
2021/04/16 00:40:45;;;;;;;30.20;17.30;;;;;;;;;;4977957;28;20031;-82
2021/04/16 00:43:12;;;;;;;27.33;16.98;;;;;;;;;;4977443;28;20027;-81
2021/04/16 00:45:39;;;;;;;29.60;16.48;;;;;;;;;;4977365;28;20031;-81
2021/04/16 00:48:06;;;;;;;26.58;16.85;;;;;;;;;;4977889;28;20046;-81
2021/04/16 00:50:38;;;;;;;28.98;16.77;;;;;;;;;;4962949;28;20027;-81
2021/04/16 00:53:05;;;;;;;30.75;16.60;;;;;;;;;;4981556;28;20027;-81
2021/04/16 00:55:31;;;;;;;26.92;15.60;;;;;;;;;;4963791;28;20165;-81
2021/04/16 00:57:57;;;;;;;27.20;16.10;;;;;;;;;;4964275;28;20345;-81
2021/04/16 01:00:25;;;;;;;26.92;15.52;;;;;;;;;;4981281;28;20039;-81
2021/04/16 01:02:51;;;;;;;23.27;14.93;;;;;;;;;;4981109;28;20105;-81
2021/04/16 01:05:17;;;;;;;24.08;13.77;;;;;;;;;;4981016;28;20421;-81
2021/04/16 01:07:43;;;;;;;21.00;12.60;;;;;;;;;;4980938;28;20069;-81
2021/04/16 01:10:10;;;;;;;22.75;13.02;;;;;;;;;;4963530;28;20801;-81
2021/04/16 01:12:36;;;;;;;21.38;12.95;;;;;;;;;;4981053;28;20035;-80
2021/04/16 01:15:15;;;;;;;21.52;12.95;;;;;;;;;;4980792;28;20342;-81
2021/04/16 01:17:42;;;;;;;23.08;13.38;;;;;;;;;;4980728;28;20492;-81
2021/04/16 01:20:17;;;;;;;24.10;13.18;;;;;;;;;;4963780;28;20081;-81
2021/04/16 01:22:53;;;;;;;20.38;12.98;;;;;;;;;;4981048;28;20031;-81
2021/04/16 01:25:20;;;;;;;23.13;13.90;;;;;;;;;;4980782;28;20413;-81
2021/04/16 01:27:46;;;;;;;21.85;13.52;;;;;;;;;;4980767;28;20110;-82
2021/04/16 01:30:14;;;;;;;19.13;12.27;;;;;;;;;;4980900;28;20019;-81
2021/04/16 01:32:40;;;;;;;20.67;12.88;;;;;;;;;;4980750;28;20405;-81
2021/04/16 01:35:10;;;;;;;23.48;12.75;;;;;;;;;;4980525;28;20401;-81
2021/04/16 01:37:36;;;;;;;20.63;12.80;;;;;;;;;;4980546;28;20126;-81
2021/04/16 01:40:02;;;;;;;22.75;12.88;;;;;;;;;;4980512;28;20114;-81
2021/04/16 01:42:28;;;;;;;18.67;12.07;;;;;;;;;;4980199;28;20034;-81
2021/04/16 01:44:54;;;;;;;17.25;11.40;;;;;;;;;;4980494;28;20031;-81
2021/04/16 01:47:20;;;;;;;17.00;10.90;;;;;;;;;;4962805;28;20408;-81
2021/04/16 01:49:51;;;;;;;17.30;10.60;;;;;;;;;;4980294;28;20098;-81
2021/04/16 01:52:20;;;;;;;19.65;10.82;;;;;;;;;;4979953;28;20415;-82
2021/04/16 01:54:50;;;;;;;16.35;10.82;;;;;;;;;;4963037;28;20385;-81
2021/04/16 01:57:21;;;;;;;15.82;10.23;;;;;;;;;;4980096;28;20033;-81
2021/04/16 01:59:48;;;;;;;20.10;11.00;;;;;;;;;;4979977;28;20049;-81
2021/04/16 02:02:17;;;;;;;17.10;10.95;;;;;;;;;;4979526;28;20113;-81
2021/04/16 02:04:43;;;;;;;17.98;11.02;;;;;;;;;;4980263;28;20097;-82
2021/04/16 02:07:10;;;;;;;15.38;10.45;;;;;;;;;;4980082;28;20023;-81
2021/04/16 02:09:37;;;;;;;16.92;10.52;;;;;;;;;;4979912;28;20055;-81
2021/04/16 02:12:04;;;;;;;17.63;10.60;;;;;;;;;;4980258;28;20023;-82
2021/04/16 02:14:31;;;;;;;15.40;11.05;;;;;;;;;;4979970;28;20033;-82
2021/04/16 02:17:00;;;;;;;12.95;9.65;;;;;;;;;;4979886;28;20022;-81
2021/04/16 02:19:26;;;;;;;16.83;10.23;;;;;;;;;;4994796;28;20027;-81
2021/04/16 02:21:52;;;;;;;15.77;10.52;;;;;;;;;;4979697;28;20030;-81
2021/04/16 02:24:19;;;;;;;18.30;12.10;;;;;;;;;;4979590;28;20026;-80
2021/04/16 02:26:45;;;;;;;18.92;11.65;;;;;;;;;;4979753;28;20031;-81
2021/04/16 02:29:13;;;;;;;20.58;11.02;;;;;;;;;;4979701;28;20046;-81
2021/04/16 02:31:42;;;;;;;17.98;10.45;;;;;;;;;;4962280;28;20023;-81
2021/04/16 02:34:13;;;;;;;19.58;10.90;;;;;;;;;;4962316;28;20023;-81
2021/04/16 02:36:39;;;;;;;19.10;11.05;;;;;;;;;;4962252;28;20027;-81
2021/04/16 02:39:06;;;;;;;19.92;11.50;;;;;;;;;;4979255;28;20035;-82
2021/04/16 02:41:32;;;;;;;18.02;11.60;;;;;;;;;;4979441;28;20050;-82
2021/04/16 02:43:58;;;;;;;23.90;13.10;;;;;;;;;;4979673;28;20031;-81
2021/04/16 02:46:24;;;;;;;25.13;12.52;;;;;;;;;;4979005;28;20035;-81
2021/04/16 02:48:50;;;;;;;27.27;12.93;;;;;;;;;;4979156;28;20118;-81
2021/04/16 02:51:16;;;;;;;19.45;11.18;;;;;;;;;;4979107;28;20468;-81
2021/04/16 02:53:42;;;;;;;15.30;9.80;;;;;;;;;;4979073;28;20026;-81
2021/04/16 02:56:08;;;;;;;16.58;9.13;;;;;;;;;;4978943;28;20041;-81
2021/04/16 02:58:34;;;;;;;17.25;10.88;;;;;;;;;;4978994;28;20018;-81
2021/04/16 03:01:00;;;;;;;14.90;9.23;;;;;;;;;;4978963;28;20329;-82
2021/04/16 03:03:26;;;;;;;16.83;9.35;;;;;;;;;;4979206;28;20031;-81
2021/04/16 03:05:53;;;;;;;15.07;9.35;;;;;;;;;;4961811;28;20051;-82
2021/04/16 03:08:20;;;;;;;15.30;9.10;;;;;;;;;;4978710;28;20031;-80
2021/04/16 03:10:47;;;;;;;12.50;8.27;;;;;;;;;;4978563;28;20051;-80
2021/04/16 03:13:13;;;;;;;13.75;9.25;;;;;;;;;;4978648;28;20029;-80
2021/04/16 03:15:40;;;;;;;14.93;9.20;;;;;;;;;;4978654;28;20027;-81
2021/04/16 03:18:06;;;;;;;15.95;8.40;;;;;;;;;;4978902;28;20050;-82
2021/04/16 03:20:32;;;;;;;12.48;8.45;;;;;;;;;;4979013;28;20302;-82
2021/04/16 03:22:58;;;;;;;14.02;10.30;;;;;;;;;;4978999;28;20041;-82
2021/04/16 03:25:24;;;;;;;13.15;9.13;;;;;;;;;;4978636;28;20103;-82
2021/04/16 03:27:50;;;;;;;13.38;9.30;;;;;;;;;;4978808;28;20031;-83
2021/04/16 03:30:18;;;;;;;17.95;10.60;;;;;;;;;;4978626;28;20065;-82
2021/04/16 03:32:44;;;;;;;15.75;10.25;;;;;;;;;;4961479;28;20022;-82
2021/04/16 03:35:11;;;;;;;18.48;10.68;;;;;;;;;;4961430;28;20038;-82
2021/04/16 03:37:37;;;;;;;16.77;9.52;;;;;;;;;;4961606;28;20101;-82
2021/04/16 03:40:04;;;;;;;20.83;10.30;;;;;;;;;;4978526;28;20027;-82
2021/04/16 03:42:30;;;;;;;17.10;10.65;;;;;;;;;;4961525;28;20034;-82
2021/04/16 03:44:57;;;;;;;16.88;10.18;;;;;;;;;;4978651;28;20023;-82
2021/04/16 03:47:23;;;;;;;16.42;10.55;;;;;;;;;;4960883;28;20038;-82
2021/04/16 03:49:49;;;;;;;14.52;9.50;;;;;;;;;;4978492;28;20027;-82
2021/04/16 03:52:15;;;;;;;15.68;9.50;;;;;;;;;;4978377;28;20385;-82
2021/04/16 03:54:41;;;;;;;17.85;9.45;;;;;;;;;;4978417;28;20416;-82
2021/04/16 03:57:09;;;;;;;14.35;9.38;;;;;;;;;;4978429;28;20103;-81
2021/04/16 03:59:55;;;;;;;14.27;9.45;;;;;;;;;;4978226;28;20027;-82
2021/04/16 04:02:21;;;;;;;14.32;9.30;;;;;;;;;;4978436;28;20039;-82
2021/04/16 04:04:48;;;;;;;13.38;8.68;;;;;;;;;;4961096;28;20027;-82
2021/04/16 04:07:14;;;;;;;15.30;8.90;;;;;;;;;;4978269;28;20027;-81
2021/04/16 04:09:40;;;;;;;13.60;8.40;;;;;;;;;;4977768;28;20373;-82
2021/04/16 04:12:06;;;;;;;14.18;9.23;;;;;;;;;;4978263;28;20030;-82
2021/04/16 04:14:32;;;;;;;19.55;11.57;;;;;;;;;;4978010;28;20405;-82
2021/04/16 04:17:00;;;;;;;19.50;12.38;;;;;;;;;;4977880;28;20483;-81
2021/04/16 04:19:27;;;;;;;27.17;14.82;;;;;;;;;;4978291;28;20055;-82
2021/04/16 04:21:53;;;;;;;51.03;22.73;;;;;;;;;;4978213;28;20095;-82
2021/04/16 04:24:20;;;;;;;47.00;25.08;;;;;;;;;;4978463;28;20373;-81
2021/04/16 04:26:46;;;;;;;43.20;24.30;;;;;;;;;;4964653;28;20317;-81
2021/04/16 04:29:12;;;;;;;36.65;21.20;;;;;;;;;;4981829;28;20083;-81
2021/04/16 04:31:46;;;;;;;33.38;18.73;;;;;;;;;;4964645;28;20094;-83
2021/04/16 04:34:13;;;;;;;34.65;19.02;;;;;;;;;;4982147;28;20023;-83
2021/04/16 04:36:39;;;;;;;38.35;17.88;;;;;;;;;;4982042;28;20027;-83
2021/04/16 04:39:05;;;;;;;66.50;25.42;;;;;;;;;;4981773;28;20026;-82
2021/04/16 04:41:31;;;;;;;75.25;27.98;;;;;;;;;;4981910;28;20026;-82
2021/04/16 04:43:57;;;;;;;68.60;27.48;;;;;;;;;;4981557;28;20027;-82
2021/04/16 04:46:23;;;;;;;61.75;28.02;;;;;;;;;;4981679;28;20051;-81
2021/04/16 04:48:49;;;;;;;48.88;24.95;;;;;;;;;;4964347;28;20030;-82
2021/04/16 04:51:15;;;;;;;46.10;19.77;;;;;;;;;;4981323;28;20019;-82
2021/04/16 04:53:41;;;;;;;33.65;17.35;;;;;;;;;;4981415;28;20033;-80
2021/04/16 04:56:07;;;;;;;27.05;14.00;;;;;;;;;;4981286;28;20022;-81
2021/04/16 04:58:34;;;;;;;18.65;11.35;;;;;;;;;;4964026;28;20027;-81
2021/04/16 05:01:00;;;;;;;19.98;11.65;;;;;;;;;;4963974;28;20113;-81
2021/04/16 05:03:26;;;;;;;21.02;12.85;;;;;;;;;;4963708;28;20031;-81
2021/04/16 05:05:52;;;;;;;21.88;14.60;;;;;;;;;;4981119;28;20035;-81
2021/04/16 05:08:18;;;;;;;21.02;12.68;;;;;;;;;;4980833;28;20410;-82
2021/04/16 05:10:44;;;;;;;19.48;13.43;;;;;;;;;;4963864;28;20059;-81
2021/04/16 05:13:10;;;;;;;25.63;16.10;;;;;;;;;;4963844;28;20348;-81
2021/04/16 05:15:36;;;;;;;22.38;13.95;;;;;;;;;;4981137;28;20022;-81
2021/04/16 05:18:02;;;;;;;24.73;14.95;;;;;;;;;;4980895;28;20027;-81
2021/04/16 05:20:28;;;;;;;17.50;11.63;;;;;;;;;;4980886;28;20329;-81
2021/04/16 05:22:54;;;;;;;19.98;12.50;;;;;;;;;;4980936;28;20035;-81
2021/04/16 05:25:20;;;;;;;20.15;12.48;;;;;;;;;;4980755;28;20480;-81
2021/04/16 05:27:46;;;;;;;25.83;13.68;;;;;;;;;;4963301;28;20031;-81
2021/04/16 05:30:13;;;;;;;20.80;13.27;;;;;;;;;;4980627;28;20019;-82
2021/04/16 05:32:39;;;;;;;17.88;12.40;;;;;;;;;;4980704;28;20023;-81
2021/04/16 05:35:06;;;;;;;18.95;12.20;;;;;;;;;;4980768;28;20110;-82
2021/04/16 05:37:32;;;;;;;16.98;11.23;;;;;;;;;;4962033;28;20122;-81
2021/04/16 05:39:58;;;;;;;16.23;11.68;;;;;;;;;;4980614;28;20400;-80
2021/04/16 05:42:24;;;;;;;23.00;12.55;;;;;;;;;;4962938;28;20134;-81
2021/04/16 05:44:50;;;;;;;19.45;12.68;;;;;;;;;;4980231;28;20076;-81
2021/04/16 05:47:16;;;;;;;21.40;12.73;;;;;;;;;;4980311;28;20656;-83
2021/04/16 05:49:42;;;;;;;26.55;15.00;;;;;;;;;;4963103;28;20023;-81
2021/04/16 05:52:10;;;;;;;30.17;17.70;;;;;;;;;;4962962;28;20066;-82
2021/04/16 05:54:36;;;;;;;32.03;17.90;;;;;;;;;;4962834;28;20106;-82
2021/04/16 05:57:02;;;;;;;36.75;20.00;;;;;;;;;;4980150;28;20402;-81
2021/04/16 05:59:28;;;;;;;26.85;15.82;;;;;;;;;;4980050;28;20042;-82
2021/04/16 06:01:55;;;;;;;20.83;13.90;;;;;;;;;;4980146;28;20105;-83
2021/04/16 06:04:22;;;;;;;19.60;13.35;;;;;;;;;;4980200;28;20022;-82
2021/04/16 06:06:48;;;;;;;19.77;13.70;;;;;;;;;;4980269;28;20030;-81
2021/04/16 06:09:14;;;;;;;24.52;16.15;;;;;;;;;;4979762;28;20079;-81
2021/04/16 06:11:40;;;;;;;20.25;14.25;;;;;;;;;;4980103;28;20053;-81
2021/04/16 06:14:07;;;;;;;18.67;13.88;;;;;;;;;;4979897;28;20019;-81
2021/04/16 06:16:33;;;;;;;18.08;13.32;;;;;;;;;;4979722;28;20119;-81
2021/04/16 06:18:59;;;;;;;18.15;13.25;;;;;;;;;;4979941;28;20087;-81
2021/04/16 06:21:25;;;;;;;19.45;13.50;;;;;;;;;;4979854;28;20033;-81
2021/04/16 06:23:51;;;;;;;16.15;11.77;;;;;;;;;;4979750;28;20057;-81
2021/04/16 06:26:17;;;;;;;17.40;13.10;;;;;;;;;;4962548;28;20480;-82
2021/04/16 06:28:44;;;;;;;19.08;13.25;;;;;;;;;;4979578;28;20038;-81
2021/04/16 06:31:11;;;;;;;16.02;12.50;;;;;;;;;;4979458;28;20318;-81
2021/04/16 06:33:38;;;;;;;18.40;12.68;;;;;;;;;;4979820;28;20092;-81
2021/04/16 06:36:06;;;;;;;15.45;12.35;;;;;;;;;;4979530;28;20034;-81
2021/04/16 06:38:39;;;;;;;18.58;13.32;;;;;;;;;;4979435;28;20053;-81
2021/04/16 06:41:25;;;;;;;18.77;12.85;;;;;;;;;;4979333;28;20353;-80
2021/04/16 06:43:56;;;;;;;26.13;14.75;;;;;;;;;;4978902;28;20034;-80
2021/04/16 06:46:25;;;;;;;21.77;14.75;;;;;;;;;;4979139;28;20027;-80
2021/04/16 06:48:51;;;;;;;17.85;13.00;;;;;;;;;;4978941;28;20030;-80
2021/04/16 06:51:19;;;;;;;19.77;13.85;;;;;;;;;;4979382;28;20029;-80
2021/04/16 06:53:49;;;;;;;21.05;15.13;;;;;;;;;;4979226;28;20022;-81
2021/04/16 06:56:21;;;;;;;19.13;14.13;;;;;;;;;;4979050;28;20023;-80
2021/04/16 06:58:57;;;;;;;20.88;14.60;;;;;;;;;;4961187;28;20049;-80
2021/04/16 07:01:26;;;;;;;20.77;14.55;;;;;;;;;;4961493;28;20038;-80
2021/04/16 07:04:12;;;;;;;14.30;11.45;;;;;;;;;;4961778;28;20318;-80
2021/04/16 07:06:38;;;;;;;16.33;12.35;;;;;;;;;;4919487;29;20039;-81
2021/04/16 07:09:07;;;;;;;14.23;11.85;;;;;;;;;;4919167;29;20048;-80
2021/04/16 07:11:36;;;;;;;15.50;12.70;;;;;;;;;;4919425;29;20139;-80
2021/04/16 07:14:05;;;;;;;17.58;13.68;;;;;;;;;;4919499;29;20032;-80
2021/04/16 07:16:32;;;;;;;20.58;14.88;;;;;;;;;;4919330;29;20044;-80
2021/04/16 07:19:00;;;;;;;14.27;11.73;;;;;;;;;;4919389;29;20040;-80
2021/04/16 07:21:26;;;;;;;18.52;13.48;;;;;;;;;;4919331;29;20392;-80
2021/04/16 07:23:54;;;;;;;31.55;18.83;;;;;;;;;;4919208;29;20043;-80
2021/04/16 07:26:20;;;;;;;36.85;22.60;;;;;;;;;;4919309;29;20036;-80
2021/04/16 07:28:49;;;;;;;20.83;15.25;;;;;;;;;;4919173;29;20068;-80
2021/04/16 07:31:36;;;;;;;17.63;12.55;;;;;;;;;;4902971;29;20036;-80
2021/04/16 07:34:03;;;;;;;14.57;12.35;;;;;;;;;;4919032;29;20024;-80
2021/04/16 07:36:37;;;;;;;67.50;26.02;;;;;;;;;;4903243;29;20127;-80
2021/04/16 07:39:03;;;;;;;69.82;29.60;;;;;;;;;;4919046;29;20115;-80
2021/04/16 07:41:31;;;;;;;19.90;13.73;;;;;;;;;;4918977;29;20075;-80
2021/04/16 07:43:59;;;;;;;19.77;13.10;;;;;;;;;;4938806;28;20062;-80
2021/04/16 07:46:28;;;;;;;13.35;10.82;;;;;;;;;;4978344;28;20058;-80
2021/04/16 07:48:55;;;;;;;16.20;13.05;;;;;;;;;;4972988;28;20426;-80
2021/04/16 07:51:28;;;;;;;16.65;13.27;;;;;;;;;;4958768;29;20023;-79
2021/04/16 07:53:55;;;;;;;14.55;11.25;;;;;;;;;;4958822;29;20023;-80
2021/04/16 07:56:24;;;;;;;16.10;12.52;;;;;;;;;;4958959;29;20031;-80
2021/04/16 07:59:01;;;;;;;14.38;11.27;;;;;;;;;;4941947;29;20406;-80
2021/04/16 08:01:27;;;;;;;12.85;11.00;;;;;;;;;;4962557;28;20147;-79
2021/04/16 08:03:55;;;;;;;13.88;11.38;;;;;;;;;;4962971;29;20047;-80
2021/04/16 08:06:32;;;;;;;16.90;12.82;;;;;;;;;;4962684;29;20039;-79
2021/04/16 08:08:59;;;;;;;16.10;12.40;;;;;;;;;;4962456;28;20059;-80
2021/04/16 08:11:29;;;;;;;18.10;13.02;;;;;;;;;;4962589;29;20028;-80
2021/04/16 08:13:57;;;;;;;15.82;11.90;;;;;;;;;;4945493;29;20028;-80
2021/04/16 08:16:31;;;;;;;14.35;11.40;;;;;;;;;;4962412;28;20047;-79
2021/04/16 08:18:57;;;;;;;14.85;11.07;;;;;;;;;;4962560;29;20035;-80
2021/04/16 08:21:24;;;;;;;15.32;11.48;;;;;;;;;;4962687;29;20031;-79
2021/04/16 08:24:01;;;;;;;11.75;9.20;;;;;;;;;;4962559;29;20078;-80
2021/04/16 08:26:30;;;;;;;15.38;11.02;;;;;;;;;;4962421;29;20031;-79
2021/04/16 08:29:00;;;;;;;24.08;17.17;;;;;;;;;;4962186;29;20102;-80
2021/04/16 08:31:30;;;;;;;24.35;19.05;;;;;;;;;;4962617;29;20027;-80
2021/04/16 08:34:14;;;;;;;16.65;12.15;;;;;;;;;;4962444;29;20102;-80
2021/04/16 08:36:41;;;;;;;13.90;10.40;;;;;;;;;;4962287;29;20027;-80
2021/04/16 08:39:07;;;;;;;13.27;11.15;;;;;;;;;;4944960;29;20426;-80
2021/04/16 08:41:37;;;;;;;15.55;11.52;;;;;;;;;;4945024;29;20031;-80
2021/04/16 08:44:06;;;;;;;27.88;17.88;;;;;;;;;;4962047;29;20419;-77
2021/04/16 08:46:36;;;;;;;16.42;12.18;;;;;;;;;;4944841;29;20040;-74
2021/04/16 08:49:11;;;;;;;13.77;10.65;;;;;;;;;;4961959;29;20043;-74
2021/04/16 08:51:39;;;;;;;23.17;11.05;;;;;;;;;;4961863;29;20027;-74
2021/04/16 08:54:15;;;;;;;23.90;12.68;;;;;;;;;;4961832;29;20414;-74
2021/04/16 08:56:56;;;;;;;11.95;9.63;;;;;;;;;;4961776;29;20465;-74
2021/04/16 08:59:23;;;;;;;16.33;10.30;;;;;;;;;;4944861;29;20035;-75
2021/04/16 09:02:05;;;;;;;22.23;11.35;;;;;;;;;;4961615;28;20207;-74
2021/04/16 09:04:31;;;;;;;16.80;11.35;;;;;;;;;;4961631;29;20035;-75
2021/04/16 09:06:58;;;;;;;13.07;8.57;;;;;;;;;;4961594;29;20405;-74
2021/04/16 09:09:43;;;;;;;9.70;7.95;;;;;;;;;;4961394;28;20047;-74
2021/04/16 09:12:09;;;;;;;9.60;8.10;;;;;;;;;;4961210;28;20047;-74
2021/04/16 09:14:35;;;;;;;10.90;8.80;;;;;;;;;;4961624;29;20051;-75
2021/04/16 09:17:03;;;;;;;10.82;8.70;;;;;;;;;;4944182;29;20143;-75
2021/04/16 09:19:29;;;;;;;10.40;8.88;;;;;;;;;;4961499;29;20031;-74
2021/04/16 09:22:04;;;;;;;10.02;8.10;;;;;;;;;;4961407;29;20139;-75
2021/04/16 09:24:47;;;;;;;10.00;8.73;;;;;;;;;;4961304;29;20024;-75
2021/04/16 09:27:31;;;;;;;11.02;8.70;;;;;;;;;;4943939;29;20075;-75
2021/04/16 09:30:05;;;;;;;12.32;9.38;;;;;;;;;;4961242;29;20402;-74
2021/04/16 09:32:45;;;;;;;10.63;8.63;;;;;;;;;;4961118;29;20469;-75
2021/04/16 09:35:13;;;;;;;12.50;9.52;;;;;;;;;;4961183;29;20056;-75
2021/04/16 09:37:40;;;;;;;19.08;17.02;;;;;;;;;;4960979;29;20034;-75
2021/04/16 09:40:27;;;;;;;16.48;14.77;;;;;;;;;;4961033;28;20044;-75
2021/04/16 09:42:53;;;;;;;11.98;8.77;;;;;;;;;;4943927;29;20125;-75
2021/04/16 09:45:28;;;;;;;7.88;6.95;;;;;;;;;;4943771;29;20374;-75
2021/04/16 09:48:00;;;;;;;10.18;8.18;;;;;;;;;;4960939;29;20024;-74
2021/04/16 09:50:28;;;;;;;12.38;9.02;;;;;;;;;;4960945;29;20038;-75
2021/04/16 09:53:13;;;;;;;12.30;9.20;;;;;;;;;;4960737;29;20114;-75
2021/04/16 09:55:45;;;;;;;12.13;9.13;;;;;;;;;;4943829;29;20477;-75
2021/04/16 09:58:12;;;;;;;12.77;9.00;;;;;;;;;;4960836;29;20043;-75
2021/04/16 10:00:59;;;;;;;17.48;10.63;;;;;;;;;;4960762;29;20062;-76
2021/04/16 10:03:25;;;;;;;11.65;8.57;;;;;;;;;;4960594;29;20031;-74
2021/04/16 10:05:51;;;;;;;8.63;7.18;;;;;;;;;;4960471;29;20426;-75
2021/04/16 10:08:26;;;;;;;8.75;6.88;;;;;;;;;;4943177;29;20045;-76
2021/04/16 10:10:53;;;;;;;8.43;7.15;;;;;;;;;;4960252;29;20044;-75
2021/04/16 10:13:19;;;;;;;12.60;8.20;;;;;;;;;;4960376;29;20028;-75
2021/04/16 10:15:55;;;;;;;17.05;8.90;;;;;;;;;;4959982;28;20042;-75
2021/04/16 10:18:35;;;;;;;8.52;7.22;;;;;;;;;;4960211;29;20321;-75
2021/04/16 10:21:04;;;;;;;11.15;8.00;;;;;;;;;;4960483;29;20106;-75
2021/04/16 10:23:33;;;;;;;8.82;6.90;;;;;;;;;;4942537;29;20086;-75
2021/04/16 11:19:49;;;;;;;10.15;7.72;;;;;;;;;;4959415;29;20326;-76
2021/04/16 12:38:16;;;;;;;17.38;11.32;;;;;;;;;;4958405;28;20086;-75
2021/04/16 12:40:43;;;;;;;13.38;11.20;;;;;;;;;;4941323;29;20047;-75
2021/04/16 12:43:09;;;;;;;8.45;7.65;;;;;;;;;;4941295;29;20411;-75
2021/04/16 12:45:35;;;;;;;15.10;13.45;;;;;;;;;;4958736;28;20110;-75
2021/04/16 12:48:01;;;;;;;9.90;8.95;;;;;;;;;;4961938;29;20024;-75
2021/04/16 12:50:29;;;;;;;7.68;6.55;;;;;;;;;;4962059;29;20055;-75
2021/04/16 12:52:55;;;;;;;8.30;7.45;;;;;;;;;;4961720;29;20409;-75
2021/04/16 12:55:22;;;;;;;8.32;7.20;;;;;;;;;;4961810;29;20027;-75
2021/04/16 12:57:52;;;;;;;9.55;8.13;;;;;;;;;;4961718;29;20028;-74
2021/04/16 13:00:18;;;;;;;9.85;6.35;;;;;;;;;;4961771;28;20027;-75
2021/04/16 13:02:44;;;;;;;11.73;6.45;;;;;;;;;;4961709;29;20062;-75
2021/04/16 13:05:13;;;;;;;7.65;6.05;;;;;;;;;;4961794;29;20106;-75
2021/04/16 13:07:39;;;;;;;5.88;5.28;;;;;;;;;;4961676;29;20035;-76
2021/04/16 13:10:13;;;;;;;7.50;6.68;;;;;;;;;;4961444;29;20122;-75
2021/04/16 13:12:39;;;;;;;9.77;7.45;;;;;;;;;;4961539;29;20035;-75
2021/04/16 13:15:06;;;;;;;6.75;6.05;;;;;;;;;;4961420;29;20031;-75
2021/04/16 13:17:32;;;;;;;6.25;5.63;;;;;;;;;;4961675;29;20031;-76
2021/04/16 13:19:58;;;;;;;7.18;6.32;;;;;;;;;;4961365;29;20031;-75
2021/04/16 13:22:27;;;;;;;6.78;5.63;;;;;;;;;;4961414;29;20027;-76
2021/04/16 13:24:54;;;;;;;8.52;6.93;;;;;;;;;;4944321;29;20023;-76
2021/04/16 13:27:29;;;;;;;9.30;6.95;;;;;;;;;;4961302;29;20024;-76
2021/04/16 13:29:55;;;;;;;8.18;7.05;;;;;;;;;;4961447;29;20034;-76
2021/04/16 13:32:26;;;;;;;8.07;6.82;;;;;;;;;;4961068;28;20425;-76
2021/04/16 13:34:54;;;;;;;8.57;6.03;;;;;;;;;;4961249;29;20399;-75
2021/04/16 13:37:21;;;;;;;10.82;8.10;;;;;;;;;;4961086;29;20027;-75
2021/04/16 13:39:48;;;;;;;19.88;12.35;;;;;;;;;;4961129;29;20031;-75
2021/04/16 13:42:15;;;;;;;10.68;8.07;;;;;;;;;;4960828;29;20035;-75
2021/04/16 13:44:41;;;;;;;8.10;6.20;;;;;;;;;;4961115;29;20031;-75
2021/04/16 13:47:07;;;;;;;8.85;7.32;;;;;;;;;;4960784;28;20102;-75
2021/04/16 13:49:35;;;;;;;6.88;6.10;;;;;;;;;;4960841;29;20090;-75
2021/04/16 13:52:02;;;;;;;6.57;5.75;;;;;;;;;;4960902;29;20322;-75
2021/04/16 13:54:28;;;;;;;6.65;5.82;;;;;;;;;;4960723;29;20030;-75
2021/04/16 13:56:54;;;;;;;6.47;5.80;;;;;;;;;;4960053;28;20403;-76
2021/04/16 13:59:20;;;;;;;7.47;6.13;;;;;;;;;;4960190;29;20299;-76
2021/04/16 14:01:46;;;;;;;9.27;6.50;;;;;;;;;;4960592;29;20050;-76
2021/04/16 14:04:24;;;;;;;7.68;5.95;;;;;;;;;;4943567;29;20039;-76
2021/04/16 14:06:50;;;;;;;11.73;6.32;;;;;;;;;;4960484;29;20407;-76
2021/04/16 14:09:19;;;;;;;14.20;8.43;;;;;;;;;;4960140;28;20047;-75
2021/04/16 14:11:45;;;;;;;21.00;13.60;;;;;;;;;;4960653;29;20031;-76
2021/04/16 14:14:14;;;;;;;26.50;15.77;;;;;;;;;;4960687;29;20023;-79
2021/04/16 14:16:42;;;;;;;20.38;12.68;;;;;;;;;;4943350;29;20070;-76
2021/04/16 14:19:14;;;;;;;22.08;13.90;;;;;;;;;;4960619;29;20321;-83
2021/04/16 14:21:42;;;;;;;14.95;10.95;;;;;;;;;;4960181;29;20031;-79
2021/04/16 14:24:09;;;;;;;15.10;9.35;;;;;;;;;;4959993;28;20039;-78
2021/04/16 14:26:35;;;;;;;11.60;9.18;;;;;;;;;;4960184;29;20107;-80
2021/04/16 14:29:01;;;;;;;13.95;9.70;;;;;;;;;;4943061;29;20043;-79
2021/04/16 14:31:29;;;;;;;11.57;8.50;;;;;;;;;;4960239;29;20061;-79
2021/04/16 14:33:55;;;;;;;8.93;6.93;;;;;;;;;;4960116;29;20426;-80
2021/04/16 14:36:21;;;;;;;17.63;11.38;;;;;;;;;;4959834;29;20023;-79
2021/04/16 14:38:47;;;;;;;9.43;6.80;;;;;;;;;;4960119;29;20300;-79
2021/04/16 14:41:17;;;;;;;9.57;7.28;;;;;;;;;;4959712;28;20031;-79
2021/04/16 14:43:43;;;;;;;11.43;8.38;;;;;;;;;;4960112;29;20032;-79
2021/04/16 14:46:09;;;;;;;9.57;7.20;;;;;;;;;;4959902;29;20035;-78
2021/04/16 14:48:35;;;;;;;10.05;7.28;;;;;;;;;;4959828;29;20031;-79
2021/04/16 14:51:03;;;;;;;11.25;7.50;;;;;;;;;;4959742;29;20114;-79
2021/04/16 14:53:32;;;;;;;10.02;6.07;;;;;;;;;;4959712;29;20513;-79
2021/04/16 14:55:59;;;;;;;8.82;5.65;;;;;;;;;;4959718;29;20457;-79
2021/04/16 14:58:33;;;;;;;10.63;6.95;;;;;;;;;;4959622;29;20023;-78
2021/04/16 15:00:59;;;;;;;12.48;8.63;;;;;;;;;;4942539;29;20133;-78
2021/04/16 15:03:25;;;;;;;15.95;9.63;;;;;;;;;;4959548;29;20071;-79
2021/04/16 15:05:52;;;;;;;8.23;6.70;;;;;;;;;;4942374;29;20035;-79
2021/04/16 15:08:22;;;;;;;7.80;6.25;;;;;;;;;;4959023;28;20055;-82
2021/04/16 15:10:50;;;;;;;11.77;7.78;;;;;;;;;;4942134;29;20126;-80
2021/04/16 15:13:18;;;;;;;8.50;6.65;;;;;;;;;;4959354;29;20019;-79
2021/04/16 15:15:48;;;;;;;7.90;6.40;;;;;;;;;;4942247;29;20059;-79
2021/04/16 15:18:17;;;;;;;13.35;9.15;;;;;;;;;;4959217;29;20414;-79
2021/04/16 15:20:44;;;;;;;12.05;8.05;;;;;;;;;;4942270;29;20426;-79
2021/04/16 15:23:11;;;;;;;40.25;20.50;;;;;;;;;;4959204;29;20406;-79
2021/04/16 15:25:38;;;;;;;69.93;22.33;;;;;;;;;;4959323;29;20099;-79
2021/04/16 15:28:11;;;;;;;28.38;13.50;;;;;;;;;;4959240;29;20078;-79
2021/04/16 15:30:41;;;;;;;15.35;10.05;;;;;;;;;;4959205;29;20199;-78
2021/04/16 15:33:15;;;;;;;13.00;8.30;;;;;;;;;;4959030;29;20024;-79
2021/04/16 15:47:05;;;;;;;14.75;9.05;;;;;;;;;;4959244;29;20472;-79
2021/04/16 15:49:31;;;;;;;24.60;12.05;;;;;;;;;;4941840;29;20122;-79
2021/04/16 15:51:57;;;;;;;23.25;12.23;;;;;;;;;;4958821;29;20024;-79
2021/04/16 15:54:24;;;;;;;39.20;25.13;;;;;;;;;;4958761;28;20035;-83
2021/04/16 15:56:51;;;;;;;53.05;33.75;;;;;;;;;;4959047;29;20019;-79
2021/04/16 15:59:20;;;;;;;30.42;19.80;;;;;;;;;;4959046;29;20035;-79
2021/04/16 16:01:46;;;;;;;12.27;8.68;;;;;;;;;;4941751;29;20039;-79
2021/04/16 16:04:12;;;;;;;23.00;11.73;;;;;;;;;;4959124;29;20330;-79
2021/04/16 16:06:39;;;;;;;13.32;8.80;;;;;;;;;;4958724;29;20042;-79
2021/04/16 16:09:06;;;;;;;7.88;6.20;;;;;;;;;;4958678;29;20023;-80
2021/04/16 16:12:05;;;;;;;12.57;8.32;;;;;;;;;;4959118;29;20465;-81
2021/04/16 16:14:33;;;;;;;24.17;10.27;;;;;;;;;;4958792;28;20326;-81
2021/04/16 16:17:00;;;;;;;10.90;7.40;;;;;;;;;;4941596;29;20023;-81
2021/04/16 16:19:26;;;;;;;10.02;6.80;;;;;;;;;;4941756;29;20453;-82
2021/04/16 16:21:52;;;;;;;10.95;8.10;;;;;;;;;;4961268;28;20027;-81
2021/04/16 16:24:18;;;;;;;29.80;9.55;;;;;;;;;;4945684;29;20035;-82
2021/04/16 16:26:46;;;;;;;11.82;8.05;;;;;;;;;;4963077;29;20023;-82
2021/04/16 16:29:18;;;;;;;21.63;11.50;;;;;;;;;;4962719;29;20036;-84
2021/04/16 16:31:46;;;;;;;25.80;11.75;;;;;;;;;;4945711;29;20058;-83
2021/04/16 16:34:14;;;;;;;24.75;12.98;;;;;;;;;;4962587;28;20043;-84
2021/04/16 16:36:41;;;;;;;26.02;16.00;;;;;;;;;;4962853;29;20028;-83
2021/04/16 16:39:07;;;;;;;16.20;11.07;;;;;;;;;;4962963;29;20349;-83
2021/04/16 16:41:33;;;;;;;15.73;10.93;;;;;;;;;;4962323;28;20453;-83
2021/04/16 16:43:59;;;;;;;14.80;10.18;;;;;;;;;;4962539;29;20440;-83
2021/04/16 16:46:29;;;;;;;21.05;10.98;;;;;;;;;;4962424;29;20034;-78
2021/04/16 16:48:55;;;;;;;19.67;12.68;;;;;;;;;;4962130;29;20034;-81
2021/04/16 16:51:23;;;;;;;29.25;13.73;;;;;;;;;;4962107;28;20046;-82